Delray, Michigan
Current Conditions -  °F | °C
As of 3:00 AM on Monday 26 Jan 2015 (Local Time) from CYQG Reporting Station
Overcast Overcast  
Wind Chill:   Ceiling: 16000
Heat Index: 14°   Visibility: 15mi
Dew Point:   Wind: 13mph
Humidity: 67%   Direction: 30°NNE
Pressure: 29.95"   Gusts: 20mph
Location:  42.2774°N, 83.1542°W
Report Text: CYQG 260800Z 03011G17KT 15SM OVC160 M10/M15 A2995 RMK AC8 SLP152
Loading
Personal Weather Stations






























Interactive Weather Map New forecast layout! Learn more

10-Day Weather Forecast

Advertisements
Track Severe Weather on mobile